Aviation Digital Data Service (ADDS)

Output produced by TAFs form (0946 UTC 01 July 2016)
found at http://www.aviationweather.gov/adds/tafs/
 
KDEN 010853Z 20003KT 10SM -RA OVC095 16/14 A3021 RMK AO2 SLP157 P0008 60012 T01610144 57015
KDEN 010930Z 0110/0212 18007KT P6SM VCSH SCT050 OVC070 
     FM011800 14009KT P6SM SCT040 OVC070 
     PROB30 0120/0124 VRB15G25KT -TSRA BKN040CB 
     FM020000 03005KT P6SM VCTS BKN070CB 
     FM020300 22007KT P6SM VCSH SCT070 BKN120